createdAt,value
2023-04-07T00:02:15.526Z,53.12
2023-04-07T00:04:42.204Z,52.97
2023-04-07T00:07:09.026Z,53.24
2023-04-07T00:09:36.710Z,52.92
2023-04-07T00:12:03.218Z,53.15
2023-04-07T00:14:29.696Z,53.28
2023-04-07T00:16:56.101Z,53.17
2023-04-07T00:19:22.602Z,53.37
2023-04-07T00:21:49.549Z,53.11
2023-04-07T00:24:27.129Z,53.35
2023-04-07T00:27:00.904Z,53.35
2023-04-07T00:29:27.502Z,53.30
2023-04-07T00:31:54.389Z,53.21
2023-04-07T00:34:20.801Z,53.12
2023-04-07T00:36:51.988Z,53.29
2023-04-07T00:39:19.618Z,53.63
2023-04-07T00:41:47.704Z,53.33
2023-04-07T00:44:14.350Z,53.40
2023-04-07T00:46:41.705Z,53.50
2023-04-07T00:49:10.608Z,53.41
2023-04-07T00:51:37.826Z,53.47
2023-04-07T00:54:04.299Z,53.45
2023-04-07T00:56:30.918Z,53.19
2023-04-07T00:58:57.941Z,53.54
2023-04-07T01:01:33.609Z,53.53
2023-04-07T01:04:13.272Z,53.24
2023-04-07T01:06:47.849Z,53.24
2023-04-07T01:09:19.546Z,53.36
2023-04-07T01:12:23.721Z,53.20
2023-04-07T01:14:54.184Z,53.77
2023-04-07T01:17:35.203Z,53.63
2023-04-07T01:20:08.373Z,53.30
2023-04-07T01:23:07.214Z,53.25
2023-04-07T01:25:53.658Z,53.39
2023-04-07T01:28:44.573Z,53.77
2023-04-07T01:31:13.065Z,53.67
2023-04-07T01:33:44.083Z,53.54
2023-04-07T01:36:12.567Z,53.75
2023-04-07T01:38:39.871Z,53.77
2023-04-07T01:41:09.781Z,53.58
2023-04-07T01:43:39.037Z,53.70
2023-04-07T01:46:05.701Z,53.66
2023-04-07T01:48:33.326Z,54.02
2023-04-07T01:51:00.786Z,54.04
2023-04-07T01:53:27.618Z,53.85
2023-04-07T01:55:54.485Z,53.81
2023-04-07T01:58:21.244Z,54.02
2023-04-07T02:00:49.162Z,53.58
2023-04-07T02:03:24.112Z,53.80
2023-04-07T02:05:56.480Z,54.22
2023-04-07T02:08:31.095Z,53.85
2023-04-07T02:10:59.572Z,54.13
2023-04-07T02:13:30.712Z,53.85
2023-04-07T02:15:58.288Z,53.94
2023-04-07T02:18:28.009Z,54.04
2023-04-07T02:20:56.249Z,53.51
2023-04-07T02:23:23.069Z,53.71
2023-04-07T02:25:50.299Z,54.12
2023-04-07T02:28:17.080Z,53.86
2023-04-07T02:30:45.336Z,54.04
2023-04-07T02:33:11.778Z,54.05
2023-04-07T02:35:38.254Z,53.96
2023-04-07T02:38:04.707Z,53.89
2023-04-07T02:40:32.379Z,53.95
2023-04-07T02:42:58.999Z,54.14
2023-04-07T02:45:25.681Z,53.86
2023-04-07T02:47:52.174Z,54.28
2023-04-07T02:50:18.751Z,54.09
2023-04-07T02:52:45.382Z,54.18
2023-04-07T02:55:14.332Z,53.95
2023-04-07T02:57:41.173Z,54.21
2023-04-07T03:00:17.339Z,54.00
2023-04-07T03:03:13.328Z,54.10
2023-04-07T03:05:44.270Z,54.26
2023-04-07T03:08:12.988Z,54.17
2023-04-07T03:10:40.147Z,54.31
2023-04-07T03:13:08.433Z,54.31
2023-04-07T03:15:35.571Z,54.21
2023-04-07T03:18:02.100Z,54.20
2023-04-07T03:20:29.870Z,54.15
2023-04-07T03:23:01.351Z,54.65
2023-04-07T03:25:29.483Z,54.44
2023-04-07T03:27:55.940Z,54.57
2023-04-07T03:30:23.506Z,54.34
2023-04-07T03:32:50.003Z,54.36
2023-04-07T03:35:16.764Z,54.19
2023-04-07T03:37:44.475Z,54.44
2023-04-07T03:40:15.294Z,54.46
2023-04-07T03:42:41.808Z,54.49
2023-04-07T03:45:11.300Z,54.46
2023-04-07T03:47:42.553Z,54.43
2023-04-07T03:50:09.885Z,54.44
2023-04-07T03:52:47.128Z,54.78
2023-04-07T03:55:23.024Z,54.77
2023-04-07T03:57:53.160Z,54.81
2023-04-07T04:00:19.808Z,54.85
2023-04-07T04:03:01.682Z,54.94
2023-04-07T04:05:28.929Z,54.43
2023-04-07T04:07:56.173Z,54.93
2023-04-07T04:10:23.652Z,54.91
2023-04-07T04:12:52.953Z,54.53
2023-04-07T04:15:19.472Z,54.95
2023-04-07T04:17:46.338Z,55.08
2023-04-07T04:20:13.047Z,54.62
2023-04-07T04:22:46.013Z,54.75
2023-04-07T04:25:12.724Z,54.93
2023-04-07T04:27:43.371Z,54.74
2023-04-07T04:30:16.871Z,54.75
2023-04-07T04:32:50.901Z,54.76
2023-04-07T04:35:22.261Z,54.80
2023-04-07T04:38:01.948Z,55.05
2023-04-07T04:40:28.544Z,55.02
2023-04-07T04:42:55.189Z,54.88
2023-04-07T04:45:22.704Z,55.06
2023-04-07T04:47:50.008Z,54.84
2023-04-07T04:50:17.079Z,55.07
2023-04-07T04:52:45.944Z,54.88
2023-04-07T04:55:19.430Z,54.85
2023-04-07T04:57:46.613Z,54.99
2023-04-07T05:00:18.341Z,54.85
2023-04-07T05:02:48.187Z,55.11
2023-04-07T05:05:15.437Z,55.04
2023-04-07T05:07:43.249Z,55.00
2023-04-07T05:10:12.796Z,55.04
2023-04-07T05:12:46.166Z,55.03
2023-04-07T05:15:12.609Z,55.22
2023-04-07T05:17:40.352Z,54.97
2023-04-07T05:20:10.895Z,55.15
2023-04-07T05:22:40.454Z,55.17
2023-04-07T05:25:10.773Z,55.13
2023-04-07T05:27:38.872Z,55.35
2023-04-07T05:30:10.994Z,55.29
2023-04-07T05:32:37.509Z,55.29
2023-04-07T05:35:11.398Z,55.53
2023-04-07T05:37:43.591Z,55.16
2023-04-07T05:40:11.832Z,55.32
2023-04-07T05:42:38.320Z,55.45
2023-04-07T05:45:05.455Z,55.32
2023-04-07T05:47:33.600Z,55.44
2023-04-07T05:50:00.970Z,55.32
2023-04-07T05:52:27.836Z,55.63
2023-04-07T05:55:06.139Z,55.59
2023-04-07T05:57:33.201Z,55.64
2023-04-07T06:00:01.448Z,55.75
2023-04-07T06:02:30.873Z,55.73
2023-04-07T06:04:58.004Z,55.72
2023-04-07T06:07:24.640Z,55.50
2023-04-07T06:09:51.391Z,55.62
2023-04-07T06:12:17.921Z,55.82
2023-04-07T06:14:51.462Z,55.48
2023-04-07T06:17:17.920Z,55.92
2023-04-07T06:19:46.940Z,55.92
2023-04-07T06:22:13.444Z,55.84
2023-04-07T06:24:39.983Z,55.89
2023-04-07T06:27:06.839Z,55.63
2023-04-07T06:29:33.924Z,55.75
2023-04-07T06:32:03.637Z,55.97
2023-04-07T06:34:30.058Z,55.64
2023-04-07T06:36:58.052Z,55.96
2023-04-07T06:39:27.210Z,55.76
2023-04-07T06:41:53.625Z,55.63
2023-04-07T06:44:20.033Z,55.99
2023-04-07T06:46:49.384Z,55.64
2023-04-07T06:49:16.457Z,55.79
2023-04-07T06:51:42.842Z,55.85
2023-04-07T06:54:12.857Z,56.13
2023-04-07T06:56:43.455Z,56.04
2023-04-07T06:59:10.275Z,55.79
2023-04-07T07:01:37.804Z,55.90
2023-04-07T07:04:06.131Z,55.79
2023-04-07T07:06:33.024Z,55.75
2023-04-07T07:09:00.617Z,55.64
2023-04-07T07:11:27.211Z,55.84
2023-04-07T07:13:53.644Z,55.54
2023-04-07T07:16:20.412Z,55.61
2023-04-07T07:18:46.904Z,55.35
2023-04-07T07:21:13.390Z,55.63
2023-04-07T07:23:39.804Z,55.83
2023-04-07T07:26:06.418Z,55.42
2023-04-07T07:28:32.839Z,55.46
2023-04-07T07:30:59.294Z,55.30
2023-04-07T07:33:26.255Z,55.47
2023-04-07T07:35:52.732Z,55.13
2023-04-07T07:38:19.641Z,54.96
2023-04-07T07:40:47.084Z,55.08
2023-04-07T07:43:13.482Z,55.16
2023-04-07T07:45:39.875Z,55.12
2023-04-07T07:48:06.369Z,55.07
2023-04-07T07:50:32.768Z,55.14
2023-04-07T07:52:59.376Z,55.06
2023-04-07T07:55:26.167Z,55.00
2023-04-07T07:57:52.619Z,55.03
2023-04-07T08:00:19.253Z,54.78
2023-04-07T08:02:45.886Z,54.70
2023-04-07T08:05:12.727Z,54.91
2023-04-07T08:07:39.199Z,54.93
2023-04-07T08:10:06.361Z,55.00
2023-04-07T08:12:32.835Z,55.16
2023-04-07T08:14:59.277Z,54.98
2023-04-07T08:17:25.825Z,54.93
2023-04-07T08:19:52.348Z,55.18
2023-04-07T08:22:20.986Z,54.90
2023-04-07T08:24:50.786Z,54.87
2023-04-07T08:27:17.366Z,55.01
2023-04-07T08:29:43.798Z,55.01
2023-04-07T08:32:10.240Z,54.94
2023-04-07T08:34:36.767Z,54.76
2023-04-07T08:37:03.300Z,54.72
2023-04-07T08:39:30.141Z,54.53
2023-04-07T08:41:58.178Z,54.65
2023-04-07T08:44:26.287Z,54.67
2023-04-07T08:46:57.320Z,54.50
2023-04-07T08:49:27.355Z,54.61
2023-04-07T08:51:54.757Z,54.61
2023-04-07T08:54:22.571Z,54.61
2023-04-07T08:56:50.287Z,54.45
2023-04-07T08:59:18.728Z,54.54
2023-04-07T09:01:47.269Z,54.78
2023-04-07T09:04:14.152Z,54.41
2023-04-07T09:06:40.842Z,54.49
2023-04-07T09:09:07.284Z,54.26
2023-04-07T09:11:38.717Z,54.15
2023-04-07T09:14:05.442Z,54.37
2023-04-07T09:16:32.344Z,54.28
2023-04-07T09:18:59.769Z,54.12
2023-04-07T09:21:27.309Z,53.88
2023-04-07T09:23:54.178Z,53.90
2023-04-07T09:26:30.400Z,53.87
2023-04-07T09:29:03.178Z,54.04
2023-04-07T09:31:55.585Z,53.46
2023-04-07T09:34:30.412Z,53.57
2023-04-07T09:36:57.440Z,53.76
2023-04-07T09:39:24.595Z,53.64
2023-04-07T09:41:54.261Z,53.45
2023-04-07T09:44:21.895Z,53.32
2023-04-07T09:46:56.924Z,52.87
2023-04-07T09:49:25.235Z,53.22
2023-04-07T09:52:00.807Z,52.83
2023-04-07T09:54:42.629Z,52.60
2023-04-07T09:57:11.132Z,52.82
2023-04-07T09:59:40.824Z,52.98
2023-04-07T10:02:08.295Z,52.66
2023-04-07T10:04:34.898Z,52.65
2023-04-07T10:07:03.258Z,52.64
2023-04-07T10:09:31.007Z,52.49
2023-04-07T10:11:59.728Z,52.34
2023-04-07T10:14:31.210Z,52.04
2023-04-07T10:17:00.032Z,52.26
2023-04-07T10:19:31.390Z,52.26
2023-04-07T10:21:59.624Z,52.25
2023-04-07T10:24:39.180Z,52.48
2023-04-07T10:27:11.512Z,52.13
2023-04-07T10:29:42.404Z,52.53
2023-04-07T10:32:09.349Z,52.22
2023-04-07T10:34:48.749Z,51.67
2023-04-07T10:37:17.682Z,52.05
2023-04-07T10:39:44.658Z,51.82
2023-04-07T10:42:39.110Z,51.84
2023-04-07T10:45:07.276Z,52.15
2023-04-07T10:47:34.128Z,51.98
2023-04-07T10:50:12.912Z,51.69
2023-04-07T10:52:39.657Z,51.68
2023-04-07T10:55:44.631Z,51.62
2023-04-07T10:58:18.068Z,51.78
2023-04-07T11:01:06.101Z,52.00
2023-04-07T11:03:35.479Z,51.72
2023-04-07T11:06:13.706Z,51.63
2023-04-07T11:08:47.524Z,51.87
2023-04-07T11:11:34.437Z,51.92
2023-04-07T11:14:00.880Z,51.91
2023-04-07T11:16:41.727Z,51.92
2023-04-07T11:19:08.646Z,51.96
2023-04-07T11:21:36.549Z,51.82
2023-04-07T11:24:03.220Z,51.87
2023-04-07T11:26:30.374Z,51.90
2023-04-07T11:28:58.907Z,51.94
2023-04-07T11:31:26.996Z,51.72
2023-04-07T11:34:01.938Z,51.75
2023-04-07T11:36:38.686Z,51.72
2023-04-07T11:39:05.173Z,51.62
2023-04-07T11:41:33.667Z,51.55
2023-04-07T11:44:11.648Z,51.18
2023-04-07T11:46:56.425Z,51.46
2023-04-07T11:49:24.297Z,51.31
2023-04-07T11:51:58.977Z,51.17
2023-04-07T11:54:25.415Z,51.32
2023-04-07T11:56:55.365Z,51.48
2023-04-07T11:59:24.044Z,51.34
2023-04-07T12:01:52.102Z,51.60
2023-04-07T12:04:19.883Z,51.59
2023-04-07T12:06:47.788Z,51.63
2023-04-07T12:09:32.728Z,50.97
2023-04-07T12:11:59.234Z,51.21
2023-04-07T12:14:27.722Z,50.56
2023-04-07T12:16:58.925Z,50.62
2023-04-07T12:19:28.013Z,50.53
2023-04-07T12:21:55.410Z,50.77
2023-04-07T12:24:22.276Z,50.47
2023-04-07T12:26:48.730Z,50.66
2023-04-07T12:29:16.285Z,50.56
2023-04-07T12:31:43.678Z,50.63
2023-04-07T12:34:10.125Z,50.73
2023-04-07T12:36:36.627Z,50.54
2023-04-07T12:39:03.224Z,50.34
2023-04-07T12:41:29.634Z,50.35
2023-04-07T12:43:56.050Z,50.58
2023-04-07T12:46:22.589Z,50.87
2023-04-07T12:48:49.384Z,50.49
2023-04-07T12:51:16.536Z,50.43
2023-04-07T12:53:43.433Z,50.27
2023-04-07T12:56:10.343Z,50.28
2023-04-07T12:58:36.822Z,50.82
2023-04-07T13:01:03.377Z,50.22
2023-04-07T13:03:29.953Z,50.44
2023-04-07T13:05:56.469Z,50.63
2023-04-07T13:08:22.942Z,50.54
2023-04-07T13:10:49.416Z,50.60
2023-04-07T13:13:15.971Z,50.07
2023-04-07T13:15:42.403Z,49.87
2023-04-07T13:18:09.174Z,50.49
2023-04-07T13:20:35.646Z,50.18
2023-04-07T13:23:07.757Z,49.62
2023-04-07T13:25:34.721Z,49.74
2023-04-07T13:28:01.619Z,49.85
2023-04-07T13:30:28.489Z,49.53
2023-04-07T13:32:55.647Z,49.75
2023-04-07T13:35:22.157Z,50.03
2023-04-07T13:37:48.601Z,49.37
2023-04-07T13:40:15.376Z,49.42
2023-04-07T13:42:41.970Z,49.47
2023-04-07T13:45:09.037Z,49.53
2023-04-07T13:47:36.372Z,49.65
2023-04-07T13:50:04.031Z,49.74
2023-04-07T13:52:32.824Z,49.71
2023-04-07T13:54:59.227Z,49.75
2023-04-07T13:57:25.879Z,49.63
2023-04-07T13:59:52.367Z,49.78
2023-04-07T14:02:19.851Z,49.37
2023-04-07T14:04:46.695Z,49.62
2023-04-07T14:07:13.351Z,50.01
2023-04-07T14:09:40.348Z,49.45
2023-04-07T14:12:07.305Z,49.59
2023-04-07T14:14:33.793Z,49.15
2023-04-07T14:17:00.361Z,49.26
2023-04-07T14:19:26.765Z,49.45
2023-04-07T14:21:53.485Z,49.57
2023-04-07T14:24:19.968Z,49.78
2023-04-07T14:26:46.946Z,49.73
2023-04-07T14:29:13.891Z,50.09
2023-04-07T14:31:40.957Z,49.89
2023-04-07T14:34:08.178Z,49.91
2023-04-07T14:36:34.712Z,50.16
2023-04-07T14:39:01.953Z,50.17
2023-04-07T14:41:28.456Z,50.28
2023-04-07T14:43:58.505Z,50.42
2023-04-07T14:46:27.369Z,50.41
2023-04-07T14:48:53.869Z,50.33
2023-04-07T14:51:21.279Z,50.59
2023-04-07T14:53:53.250Z,50.73
2023-04-07T14:56:21.232Z,50.74
2023-04-07T14:58:47.679Z,50.74
2023-04-07T15:01:14.132Z,50.64
2023-04-07T15:03:40.656Z,50.56
2023-04-07T15:06:08.752Z,50.82
2023-04-07T15:08:35.895Z,50.94
2023-04-07T15:11:08.911Z,51.00
2023-04-07T15:13:36.598Z,50.87
2023-04-07T15:16:11.138Z,50.88
2023-04-07T15:18:39.625Z,50.96
2023-04-07T15:21:06.196Z,50.79
2023-04-07T15:23:33.758Z,50.89
2023-04-07T15:26:00.252Z,50.85
2023-04-07T15:28:26.748Z,50.84
2023-04-07T15:30:53.145Z,51.02
2023-04-07T15:33:19.569Z,50.96
2023-04-07T15:35:46.294Z,50.85
2023-04-07T15:38:12.864Z,51.23
2023-04-07T15:40:41.103Z,51.11
2023-04-07T15:43:10.459Z,51.13
2023-04-07T15:45:41.365Z,51.00
2023-04-07T15:48:08.029Z,51.15
2023-04-07T15:50:35.980Z,51.22
2023-04-07T15:53:06.421Z,51.27
2023-04-07T15:55:36.769Z,51.21
2023-04-07T15:58:04.061Z,51.41
2023-04-07T16:00:33.897Z,51.37
2023-04-07T16:03:03.717Z,51.34
2023-04-07T16:05:30.534Z,51.38
2023-04-07T16:07:56.982Z,51.51
2023-04-07T16:10:23.882Z,51.95
2023-04-07T16:12:50.446Z,52.04
2023-04-07T16:15:25.867Z,51.91
2023-04-07T16:18:07.298Z,52.09
2023-04-07T16:20:33.791Z,52.00
2023-04-07T16:23:00.221Z,51.92
2023-04-07T16:25:26.760Z,51.88
2023-04-07T16:27:53.662Z,52.01
2023-04-07T16:30:20.923Z,52.32
2023-04-07T16:32:47.562Z,52.32
2023-04-07T16:35:14.784Z,52.16
2023-04-07T16:37:42.476Z,52.60
2023-04-07T16:40:10.354Z,52.59
2023-04-07T16:42:36.824Z,52.59
2023-04-07T16:45:04.213Z,52.63
2023-04-07T16:47:31.613Z,52.89
2023-04-07T16:49:58.892Z,53.08
2023-04-07T16:52:25.673Z,53.14
2023-04-07T16:54:52.093Z,53.10
2023-04-07T16:57:18.520Z,53.00
2023-04-07T16:59:44.972Z,53.16
2023-04-07T17:02:13.851Z,53.43
2023-04-07T17:04:41.064Z,53.12
2023-04-07T17:07:08.187Z,53.61
2023-04-07T17:09:35.075Z,53.39
2023-04-07T17:12:02.542Z,53.41
2023-04-07T17:14:30.000Z,53.50
2023-04-07T17:16:56.453Z,53.65
2023-04-07T17:19:22.946Z,54.09
2023-04-07T17:21:49.364Z,54.09
2023-04-07T17:24:16.742Z,53.86
2023-04-07T17:26:49.363Z,53.72
2023-04-07T17:29:16.610Z,53.82
2023-04-07T17:31:43.444Z,53.73
2023-04-07T17:34:11.175Z,53.81
2023-04-07T17:36:38.142Z,53.70
2023-04-07T17:39:05.141Z,53.92
2023-04-07T17:41:34.422Z,53.94
2023-04-07T17:44:01.505Z,53.78
2023-04-07T17:46:28.870Z,53.92
2023-04-07T17:48:57.444Z,54.28
2023-04-07T17:51:23.891Z,54.05
2023-04-07T17:53:50.545Z,54.29
2023-04-07T17:56:17.232Z,54.25
2023-04-07T17:58:45.459Z,54.06
2023-04-07T18:01:13.044Z,54.21
2023-04-07T18:03:40.057Z,54.08
2023-04-07T18:06:08.408Z,54.05
2023-04-07T18:08:34.915Z,54.11
2023-04-07T18:11:01.570Z,54.11
2023-04-07T18:13:28.196Z,54.05
2023-04-07T18:15:54.619Z,53.91
2023-04-07T18:18:21.074Z,54.12
2023-04-07T18:20:49.217Z,54.22
2023-04-07T18:23:15.778Z,54.02
2023-04-07T18:25:42.435Z,53.90
2023-04-07T18:28:08.847Z,54.00
2023-04-07T18:30:35.395Z,53.99
2023-04-07T18:33:01.839Z,53.99
2023-04-07T18:35:28.570Z,53.93
2023-04-07T18:37:55.306Z,53.83
2023-04-07T18:40:21.736Z,54.05
2023-04-07T18:42:48.154Z,54.09
2023-04-07T18:45:14.577Z,54.09
2023-04-07T18:47:41.457Z,54.06
2023-04-07T18:50:08.340Z,54.35
2023-04-07T18:52:34.832Z,54.09
2023-04-07T18:55:01.238Z,54.08
2023-04-07T18:57:28.121Z,54.24
2023-04-07T18:59:54.537Z,54.18
2023-04-07T19:02:21.226Z,54.21
2023-04-07T19:04:47.982Z,54.32
2023-04-07T19:07:14.400Z,54.25
2023-04-07T19:09:40.835Z,54.13
2023-04-07T19:12:07.327Z,54.28
2023-04-07T19:14:33.720Z,54.22
2023-04-07T19:17:00.307Z,54.36
2023-04-07T19:19:28.090Z,54.44
2023-04-07T19:21:54.516Z,54.43
2023-04-07T19:24:20.942Z,54.34
2023-04-07T19:26:47.432Z,54.50
2023-04-07T19:29:14.043Z,54.58
2023-04-07T19:31:40.568Z,54.52
2023-04-07T19:34:07.081Z,54.70
2023-04-07T19:36:33.594Z,54.65
2023-04-07T19:39:00.127Z,54.60
2023-04-07T19:41:26.691Z,54.59
2023-04-07T19:43:53.318Z,54.72
2023-04-07T19:46:19.879Z,54.68
2023-04-07T19:48:46.863Z,54.82
2023-04-07T19:51:13.373Z,54.83
2023-04-07T19:53:39.995Z,55.01
2023-04-07T19:56:06.460Z,55.02
2023-04-07T19:58:34.350Z,55.01
2023-04-07T20:01:00.890Z,54.91
2023-04-07T20:03:27.568Z,54.99
2023-04-07T20:05:54.427Z,54.99
2023-04-07T20:08:21.328Z,55.13
2023-04-07T20:10:51.071Z,55.10
2023-04-07T20:13:17.522Z,55.12
2023-04-07T20:15:44.124Z,55.18
2023-04-07T20:18:11.203Z,55.28
2023-04-07T20:20:37.792Z,55.28
2023-04-07T20:23:04.232Z,55.36
2023-04-07T20:25:30.689Z,55.43
2023-04-07T20:27:57.112Z,55.39
2023-04-07T20:30:23.548Z,55.34
2023-04-07T20:32:50.317Z,55.46
2023-04-07T20:35:16.858Z,55.39
2023-04-07T20:37:44.406Z,55.54
2023-04-07T20:40:11.754Z,55.53
2023-04-07T20:42:38.518Z,55.55
2023-04-07T20:45:06.392Z,55.51
2023-04-07T20:47:35.823Z,55.56
2023-04-07T20:50:02.359Z,55.53
2023-04-07T20:52:29.244Z,55.78
2023-04-07T20:54:56.480Z,55.83
2023-04-07T20:57:24.008Z,55.73
2023-04-07T20:59:50.835Z,55.86
2023-04-07T21:02:17.507Z,56.03
2023-04-07T21:04:44.093Z,56.04
2023-04-07T21:07:11.418Z,56.13
2023-04-07T21:09:37.913Z,55.87
2023-04-07T21:12:04.364Z,56.17
2023-04-07T21:14:31.989Z,56.12
2023-04-07T21:17:00.397Z,56.24
2023-04-07T21:19:26.825Z,56.16
2023-04-07T21:21:53.374Z,56.35
2023-04-07T21:24:21.343Z,56.03
2023-04-07T21:26:47.803Z,56.25
2023-04-07T21:29:14.283Z,56.26
2023-04-07T21:31:41.203Z,56.25
2023-04-07T21:34:07.624Z,56.41
2023-04-07T21:36:34.514Z,56.32
2023-04-07T21:39:01.175Z,56.32
2023-04-07T21:41:27.658Z,56.48
2023-04-07T21:43:54.051Z,56.53
2023-04-07T21:46:20.553Z,56.42
2023-04-07T21:48:48.280Z,56.44
2023-04-07T21:51:15.372Z,56.43
2023-04-07T21:53:41.833Z,56.56
2023-04-07T21:56:13.057Z,56.52
2023-04-07T21:58:41.695Z,56.73
2023-04-07T22:01:08.107Z,56.71
2023-04-07T22:03:34.772Z,56.81
2023-04-07T22:06:01.772Z,56.71
2023-04-07T22:08:28.223Z,56.70
2023-04-07T22:10:54.687Z,56.80
2023-04-07T22:13:21.143Z,56.82
2023-04-07T22:15:47.616Z,56.90
2023-04-07T22:18:14.084Z,56.80
2023-04-07T22:20:40.566Z,56.92
2023-04-07T22:23:07.018Z,57.01
2023-04-07T22:25:33.521Z,57.21
2023-04-07T22:28:00.019Z,56.99
2023-04-07T22:30:26.505Z,57.17
2023-04-07T22:32:52.968Z,57.09
2023-04-07T22:35:19.451Z,57.12
2023-04-07T22:37:46.128Z,57.19
2023-04-07T22:40:12.559Z,57.13
2023-04-07T22:42:39.964Z,57.21
2023-04-07T22:45:07.068Z,57.21
2023-04-07T22:47:33.570Z,57.30
2023-04-07T22:50:00.514Z,57.26
2023-04-07T22:52:26.946Z,57.35
2023-04-07T22:54:53.408Z,57.40
2023-04-07T22:57:19.837Z,57.34
2023-04-07T22:59:46.396Z,57.61
2023-04-07T23:02:12.901Z,57.50
2023-04-07T23:04:39.386Z,57.33
2023-04-07T23:07:05.802Z,57.44
2023-04-07T23:09:32.245Z,57.44
2023-04-07T23:11:58.662Z,57.59
2023-04-07T23:14:25.307Z,57.68
2023-04-07T23:16:51.781Z,57.73
2023-04-07T23:19:18.310Z,57.88
2023-04-07T23:21:44.754Z,57.73
2023-04-07T23:24:11.202Z,57.92
2023-04-07T23:26:37.969Z,57.73
2023-04-07T23:29:04.637Z,57.86
2023-04-07T23:31:31.558Z,57.80
2023-04-07T23:33:59.124Z,58.02
2023-04-07T23:36:27.030Z,57.76
2023-04-07T23:38:55.474Z,57.56
2023-04-07T23:41:22.429Z,58.03
2023-04-07T23:43:49.177Z,58.08
2023-04-07T23:46:15.917Z,58.00
2023-04-07T23:48:42.531Z,57.87
2023-04-07T23:51:08.981Z,58.05
2023-04-07T23:53:35.464Z,58.13
2023-04-07T23:56:01.935Z,58.20
2023-04-07T23:58:28.387Z,58.07
